Terminal Aerodrome Forecast
Issued by NWS Shreveport, LA

Home | Current Version | Previous Version | Text Only | Print | Product List | Glossary On
Versions: 1 2 3 4 5 6 7 8 9 10 11 12 13
863
FTUS44 KSHV 261727
TAFLFK
TAF
KLFK 261727Z 2618/2718 15011KT P6SM OVC090
     FM270400 14006KT P6SM VCTS BKN020CB
     FM270600 16011KT 4SM -TSRA BR OVC015CB
     FM271700 16007KT 5SM -RA BR VCTS BKN025CB=

USA.gov is the U.S. government's official web portal to all federal, state and local government web resources and services.